Time;durP1;ratioP1;P1;durP2;ratioP2;P2;SDS_P1;SDS_P2;PMS_P1;PMS_P2;Temp;Humidity;BMP_temperature;BMP_pressure;BME280_temperature;BME280_humidity;BME280_pressure;Samples;Min_cycle;Max_cycle;Signal;HPM_P1;HPM_P2
2022/02/18 00:03:04;;;;;;;;;;;6.70;99.90;;;;;;8411148;28;19924;-74
2022/02/18 00:07:07;;;;;;;;;;;6.70;99.90;;;;;;8387104;28;20364;-74
2022/02/18 00:11:09;;;;;;;;;;;6.70;99.90;;;;;;8379598;28;20352;-74
2022/02/18 00:15:11;;;;;;;;;;;6.70;99.90;;;;;;8405566;28;19939;-74
2022/02/18 00:19:13;;;;;;;;;;;6.70;99.90;;;;;;8404095;28;19958;-74
2022/02/18 00:23:14;;;;;;;;;;;6.70;99.90;;;;;;8391002;28;19932;-74
2022/02/18 00:27:17;;;;;;;;;;;6.80;99.90;;;;;;8398407;28;19971;-75
2022/02/18 00:31:18;;;;;;;;;;;6.80;99.90;;;;;;8407415;28;19920;-74
2022/02/18 00:35:20;;;;;;;;;;;6.80;99.90;;;;;;8398402;28;19924;-74
2022/02/18 00:39:22;;;;;;;;;;;6.80;99.90;;;;;;8399273;28;19931;-74
2022/02/18 00:43:23;;;;;;;;;;;6.80;99.90;;;;;;8400739;28;19928;-75
2022/02/18 00:47:25;;;;;;;;;;;6.80;99.90;;;;;;8386126;28;20023;-74
2022/02/18 00:51:26;;;;;;;;;;;6.80;99.90;;;;;;8406415;28;19924;-74
2022/02/18 00:55:28;;;;;;;;;;;6.80;99.90;;;;;;8401982;28;19931;-74
2022/02/18 00:59:30;;;;;;;;;;;6.80;99.90;;;;;;8401221;28;20629;-74
2022/02/18 01:03:31;;;;;;;;;;;6.80;99.90;;;;;;8390207;28;19920;-75
2022/02/18 01:07:33;;;;;;;;;;;6.80;99.90;;;;;;8414156;28;19921;-74
2022/02/18 01:11:35;;;;;;;;;;;6.80;99.90;;;;;;8391613;28;19920;-74
2022/02/18 01:15:38;;;;;;;;;;;6.80;99.90;;;;;;8402878;28;20401;-74
2022/02/18 01:19:39;;;;;;;;;;;6.80;99.90;;;;;;8401739;28;21077;-74
2022/02/18 01:23:41;;;;;;;;;;;6.80;99.90;;;;;;8388340;28;19920;-74
2022/02/18 01:27:43;;;;;;;;;;;6.90;99.90;;;;;;8375606;28;19986;-74
2022/02/18 01:31:45;;;;;;;;;;;6.90;99.90;;;;;;8383286;28;19943;-74
2022/02/18 01:35:48;;;;;;;;;;;6.90;99.90;;;;;;8393407;28;19923;-74
2022/02/18 01:39:50;;;;;;;;;;;6.90;99.90;;;;;;8408459;28;19931;-74
2022/02/18 01:43:53;;;;;;;;;;;7.00;99.90;;;;;;8404351;28;20017;-75
2022/02/18 01:47:54;;;;;;;;;;;7.00;99.90;;;;;;8397868;28;19930;-75
2022/02/18 01:51:56;;;;;;;;;;;7.00;99.90;;;;;;8403483;28;20371;-74
2022/02/18 01:55:58;;;;;;;;;;;7.10;99.90;;;;;;8405650;28;19921;-74
2022/02/18 02:00:00;;;;;;;;;;;7.00;99.90;;;;;;8402528;28;19951;-74
2022/02/18 02:04:01;;;;;;;;;;;7.10;99.90;;;;;;8384190;28;19935;-74
2022/02/18 02:08:03;;;;;;;;;;;7.10;99.90;;;;;;8388842;28;20406;-74
2022/02/18 02:12:05;;;;;;;;;;;7.10;99.90;;;;;;8408982;28;19921;-75
2022/02/18 02:16:07;;;;;;;;;;;7.20;99.90;;;;;;8385106;28;20302;-74
2022/02/18 02:20:09;;;;;;;;;;;7.20;99.90;;;;;;8383899;28;20012;-75
2022/02/18 02:24:12;;;;;;;;;;;7.20;99.90;;;;;;8394068;28;20275;-74
2022/02/18 02:28:14;;;;;;;;;;;7.20;99.90;;;;;;8401652;28;20286;-74
2022/02/18 02:32:16;;;;;;;;;;;7.20;99.90;;;;;;8388064;28;19927;-74
2022/02/18 02:36:21;;;;;;;;;;;7.20;99.90;;;;;;8402815;28;19978;-74
2022/02/18 02:40:23;;;;;;;;;;;7.20;99.90;;;;;;8396998;28;19931;-75
2022/02/18 02:44:24;;;;;;;;;;;7.20;99.90;;;;;;8405704;28;20272;-74
2022/02/18 02:48:26;;;;;;;;;;;7.20;99.90;;;;;;8382752;28;19996;-74
2022/02/18 02:52:27;;;;;;;;;;;7.20;99.90;;;;;;8375596;28;20415;-75
2022/02/18 02:56:30;;;;;;;;;;;7.20;99.90;;;;;;8397027;28;19931;-74
2022/02/18 03:00:32;;;;;;;;;;;7.10;99.90;;;;;;8392415;28;19966;-74
2022/02/18 03:04:34;;;;;;;;;;;7.10;99.90;;;;;;8386347;28;19932;-74
2022/02/18 03:08:35;;;;;;;;;;;7.10;99.90;;;;;;8399066;28;19921;-74
2022/02/18 03:12:37;;;;;;;;;;;7.10;99.90;;;;;;8398306;28;19931;-74
2022/02/18 03:16:38;;;;;;;;;;;7.10;99.90;;;;;;8395905;28;19921;-74
2022/02/18 03:20:40;;;;;;;;;;;7.10;99.90;;;;;;8393173;28;20311;-74
2022/02/18 03:24:42;;;;;;;;;;;7.20;99.90;;;;;;8401673;28;19928;-74
2022/02/18 03:28:44;;;;;;;;;;;7.20;99.90;;;;;;8377572;28;19927;-74
2022/02/18 03:32:46;;;;;;;;;;;7.20;99.90;;;;;;8399843;28;19920;-74
2022/02/18 03:36:48;;;;;;;;;;;7.20;99.90;;;;;;8393669;28;19929;-74
2022/02/18 03:40:50;;;;;;;;;;;7.20;99.90;;;;;;8405566;28;20303;-74
2022/02/18 03:44:52;;;;;;;;;;;7.20;99.90;;;;;;8409504;28;19943;-74
2022/02/18 03:48:56;;;;;;;;;;;7.20;99.90;;;;;;8412411;28;22271;-74
2022/02/18 03:52:57;;;;;;;;;;;7.20;99.90;;;;;;8408922;28;19931;-74
2022/02/18 03:56:59;;;;;;;;;;;7.20;99.90;;;;;;8396253;28;20263;-74
2022/02/18 04:01:01;;;;;;;;;;;7.20;99.90;;;;;;8403143;28;19920;-74
2022/02/18 04:05:03;;;;;;;;;;;7.30;99.90;;;;;;8391527;28;19920;-74
2022/02/18 04:09:05;;;;;;;;;;;7.30;99.90;;;;;;8410176;28;19927;-74
2022/02/18 04:13:06;;;;;;;;;;;7.30;99.90;;;;;;8405340;28;19995;-74
2022/02/18 04:17:08;;;;;;;;;;;7.30;99.90;;;;;;8398412;28;20367;-74
2022/02/18 04:21:10;;;;;;;;;;;7.30;99.90;;;;;;8394069;28;19920;-75
2022/02/18 04:25:11;;;;;;;;;;;7.30;99.90;;;;;;8407563;28;19948;-74
2022/02/18 04:29:13;;;;;;;;;;;7.30;99.90;;;;;;8404912;28;19924;-74
2022/02/18 04:33:15;;;;;;;;;;;7.30;99.90;;;;;;8397941;28;19921;-74
2022/02/18 04:37:17;;;;;;;;;;;7.30;99.90;;;;;;8410318;28;19920;-74
2022/02/18 04:41:18;;;;;;;;;;;7.30;99.90;;;;;;8402034;28;19932;-74
2022/02/18 04:45:20;;;;;;;;;;;7.30;99.90;;;;;;8391316;28;19924;-74
2022/02/18 04:49:22;;;;;;;;;;;7.30;99.90;;;;;;8408055;28;19928;-74
2022/02/18 04:53:43;;;;;;;;;;;7.30;99.90;;;;;;8410784;28;19975;-74
2022/02/18 04:57:46;;;;;;;;;;;7.30;99.90;;;;;;8402247;28;19928;-75
2022/02/18 05:01:48;;;;;;;;;;;7.30;99.90;;;;;;8389662;28;19940;-75
2022/02/18 05:05:49;;;;;;;;;;;7.30;99.90;;;;;;8406635;28;19928;-74
2022/02/18 05:09:51;;;;;;;;;;;7.30;99.90;;;;;;8392963;28;19947;-74
2022/02/18 05:13:52;;;;;;;;;;;7.40;99.90;;;;;;8405976;28;19923;-75
2022/02/18 05:17:54;;;;;;;;;;;7.40;99.90;;;;;;8405321;28;19977;-74
2022/02/18 05:21:56;;;;;;;;;;;7.40;99.90;;;;;;8399202;28;19921;-74
2022/02/18 05:25:57;;;;;;;;;;;7.40;99.90;;;;;;8409254;28;19932;-74
2022/02/18 05:29:59;;;;;;;;;;;7.40;99.90;;;;;;8406370;28;20284;-75
2022/02/18 05:34:01;;;;;;;;;;;7.50;99.90;;;;;;8414643;28;19927;-75
2022/02/18 05:38:02;;;;;;;;;;;7.50;99.90;;;;;;8408101;28;19927;-75
2022/02/18 05:42:04;;;;;;;;;;;7.50;99.90;;;;;;8412397;28;19928;-75
2022/02/18 05:46:06;;;;;;;;;;;7.50;99.90;;;;;;8386006;28;19931;-75
2022/02/18 05:50:13;;;;;;;;;;;7.50;99.90;;;;;;8395132;28;20473;-75
2022/02/18 05:54:15;;;;;;;;;;;7.50;99.90;;;;;;8399871;28;19932;-75
2022/02/18 05:58:16;;;;;;;;;;;7.50;99.90;;;;;;8406530;28;19928;-75
2022/02/18 06:02:18;;;;;;;;;;;7.50;99.90;;;;;;8397014;28;19929;-75
2022/02/18 06:06:21;;;;;;;;;;;7.50;99.90;;;;;;8412102;28;19927;-75
2022/02/18 06:10:22;;;;;;;;;;;7.60;99.90;;;;;;8408277;28;19958;-75
2022/02/18 06:14:24;;;;;;;;;;;7.50;99.90;;;;;;8403089;28;20367;-75
2022/02/18 06:18:26;;;;;;;;;;;7.50;99.90;;;;;;8385992;28;20298;-75
2022/02/18 06:22:28;;;;;;;;;;;7.50;99.90;;;;;;8405686;28;19928;-75
2022/02/18 06:26:29;;;;;;;;;;;7.60;99.90;;;;;;8400667;28;19924;-76
2022/02/18 06:30:31;;;;;;;;;;;7.60;99.90;;;;;;8409845;28;19924;-75
2022/02/18 06:34:33;;;;;;;;;;;7.60;99.90;;;;;;8416251;28;20387;-75
2022/02/18 06:38:35;;;;;;;;;;;7.60;99.90;;;;;;8411693;28;20299;-75
2022/02/18 06:42:36;;;;;;;;;;;7.50;99.90;;;;;;8409128;28;20392;-75
2022/02/18 06:46:38;;;;;;;;;;;7.50;99.90;;;;;;8403932;28;19924;-75
2022/02/18 06:50:40;;;;;;;;;;;7.50;99.90;;;;;;8393855;28;20351;-75
2022/02/18 06:54:41;;;;;;;;;;;7.50;99.90;;;;;;8409198;28;19924;-75
2022/02/18 06:58:43;;;;;;;;;;;7.40;99.90;;;;;;8401349;28;19925;-75
2022/02/18 07:02:45;;;;;;;;;;;7.40;99.90;;;;;;8403387;28;19927;-75
2022/02/18 07:06:46;;;;;;;;;;;7.40;99.90;;;;;;8403690;28;20371;-75
2022/02/18 07:10:48;;;;;;;;;;;7.40;99.90;;;;;;8409322;28;19948;-75
2022/02/18 07:14:49;;;;;;;;;;;7.40;99.90;;;;;;8404336;28;21317;-75
2022/02/18 07:18:53;;;;;;;;;;;7.50;99.90;;;;;;8407578;28;19977;-75
2022/02/18 07:22:55;;;;;;;;;;;7.50;99.90;;;;;;8394149;28;19928;-76
2022/02/18 07:26:57;;;;;;;;;;;7.50;99.90;;;;;;8392957;28;20027;-75
2022/02/18 07:30:59;;;;;;;;;;;7.50;99.90;;;;;;8400656;28;19931;-75
2022/02/18 07:35:00;;;;;;;;;;;7.60;99.90;;;;;;8411371;28;19924;-76
2022/02/18 07:39:02;;;;;;;;;;;7.60;99.90;;;;;;8396495;28;19924;-76
2022/02/18 07:43:05;;;;;;;;;;;7.60;99.90;;;;;;8378888;28;20403;-75
2022/02/18 07:47:19;;;;;;;;;;;7.60;99.90;;;;;;8412267;28;19924;-75
2022/02/18 07:51:24;;;;;;;;;;;7.70;99.90;;;;;;8386314;28;19979;-75
2022/02/18 07:55:25;;;;;;;;;;;7.70;99.90;;;;;;8400637;28;19939;-75
2022/02/18 07:59:27;;;;;;;;;;;7.70;99.90;;;;;;8390396;28;19924;-75
2022/02/18 08:03:29;;;;;;;;;;;7.80;99.90;;;;;;8411931;28;20374;-75
2022/02/18 08:07:31;;;;;;;;;;;7.80;99.90;;;;;;8408596;28;19932;-74
2022/02/18 08:11:32;;;;;;;;;;;7.90;99.90;;;;;;8395130;28;19932;-75
2022/02/18 08:15:34;;;;;;;;;;;7.90;99.90;;;;;;8407627;28;20034;-74
2022/02/18 08:19:36;;;;;;;;;;;7.90;99.90;;;;;;8413817;28;19935;-74
2022/02/18 08:23:37;;;;;;;;;;;7.90;99.90;;;;;;8404860;28;19925;-74
2022/02/18 08:27:39;;;;;;;;;;;8.00;99.90;;;;;;8401170;28;19925;-74
2022/02/18 08:31:41;;;;;;;;;;;8.00;99.90;;;;;;8405994;28;19924;-74
2022/02/18 08:35:42;;;;;;;;;;;8.10;99.90;;;;;;8395957;28;19986;-75
2022/02/18 08:39:44;;;;;;;;;;;8.20;99.90;;;;;;8392162;28;19924;-74
2022/02/18 08:43:46;;;;;;;;;;;8.30;99.90;;;;;;8394843;28;20004;-74
2022/02/18 08:47:48;;;;;;;;;;;8.30;99.90;;;;;;8392093;28;19928;-74
2022/02/18 08:51:50;;;;;;;;;;;8.40;99.90;;;;;;8409309;28;20398;-75
2022/02/18 08:55:51;;;;;;;;;;;8.50;99.90;;;;;;8412139;28;19924;-74
2022/02/18 08:59:53;;;;;;;;;;;8.60;99.90;;;;;;8402344;28;19932;-74
2022/02/18 09:03:55;;;;;;;;;;;8.80;99.90;;;;;;8391827;28;19924;-74
2022/02/18 09:07:56;;;;;;;;;;;8.90;99.90;;;;;;8405716;28;19925;-75
2022/02/18 09:11:58;;;;;;;;;;;9.00;99.90;;;;;;8402664;28;19940;-74
2022/02/18 09:15:59;;;;;;;;;;;9.10;99.90;;;;;;8409127;28;19924;-74
2022/02/18 09:20:02;;;;;;;;;;;9.20;99.90;;;;;;8388073;28;20300;-74
2022/02/18 09:24:04;;;;;;;;;;;9.30;99.90;;;;;;8407775;28;19990;-74
2022/02/18 09:28:06;;;;;;;;;;;9.30;99.90;;;;;;8411594;28;19932;-74
2022/02/18 09:32:07;;;;;;;;;;;9.40;99.90;;;;;;8405433;28;19925;-74
2022/02/18 09:36:09;;;;;;;;;;;9.50;99.90;;;;;;8416056;28;20286;-74
2022/02/18 09:40:12;;;;;;;;;;;9.50;99.90;;;;;;8408238;28;19924;-75
2022/02/18 09:44:14;;;;;;;;;;;9.60;99.90;;;;;;8383375;28;19977;-75
2022/02/18 09:48:17;;;;;;;;;;;9.60;99.90;;;;;;8406638;28;19935;-75
2022/02/18 09:52:19;;;;;;;;;;;9.70;99.90;;;;;;8404576;28;20428;-75
2022/02/18 09:56:21;;;;;;;;;;;9.80;99.90;;;;;;8408362;28;19936;-75
2022/02/18 10:00:22;;;;;;;;;;;9.80;99.90;;;;;;8400572;28;19975;-75
2022/02/18 10:04:24;;;;;;;;;;;10.00;99.90;;;;;;8384638;28;19931;-74
2022/02/18 10:08:27;;;;;;;;;;;10.00;99.90;;;;;;8407835;28;19940;-74
2022/02/18 10:12:38;;;;;;;;;;;10.00;99.90;;;;;;8385270;28;20335;-74
2022/02/18 10:16:40;;;;;;;;;;;10.10;99.90;;;;;;8377623;28;19928;-75
2022/02/18 10:20:42;;;;;;;;;;;10.20;99.90;;;;;;8391282;28;19924;-75
2022/02/18 10:24:45;;;;;;;;;;;10.30;99.90;;;;;;8405199;28;19924;-75
2022/02/18 10:28:55;;;;;;;;;;;10.40;99.90;;;;;;8397392;28;20014;-75
2022/02/18 10:33:08;;;;;;;;;;;10.50;99.90;;;;;;8410040;28;19943;-75
2022/02/18 10:37:10;;;;;;;;;;;10.60;99.90;;;;;;8393035;28;19924;-75
2022/02/18 10:41:29;;;;;;;;;;;10.80;99.90;;;;;;8411762;28;19924;-75
2022/02/18 10:45:31;;;;;;;;;;;10.90;99.90;;;;;;8411874;28;19932;-75
2022/02/18 10:49:34;;;;;;;;;;;10.90;99.90;;;;;;8403833;28;19924;-75
2022/02/18 10:53:43;;;;;;;;;;;10.90;99.90;;;;;;8386562;28;19935;-75
2022/02/18 10:57:45;;;;;;;;;;;10.90;99.90;;;;;;8409683;28;19931;-75
2022/02/18 11:01:46;;;;;;;;;;;11.00;99.90;;;;;;8405157;28;19928;-76
2022/02/18 11:05:48;;;;;;;;;;;11.00;99.90;;;;;;8399821;28;19928;-75
2022/02/18 11:09:50;;;;;;;;;;;11.10;99.90;;;;;;8394215;28;19935;-75
2022/02/18 11:13:52;;;;;;;;;;;11.20;99.90;;;;;;8385106;28;19925;-76
2022/02/18 11:17:55;;;;;;;;;;;11.30;99.90;;;;;;8408194;28;20264;-75
2022/02/18 11:21:58;;;;;;;;;;;11.40;99.90;;;;;;8404372;28;19928;-75
2022/02/18 11:26:00;;;;;;;;;;;11.50;99.90;;;;;;8404820;28;19933;-75
2022/02/18 11:30:02;;;;;;;;;;;11.60;99.90;;;;;;8407928;28;19931;-75
2022/02/18 11:34:23;;;;;;;;;;;11.70;99.90;;;;;;8393136;28;20371;-75
2022/02/18 11:38:33;;;;;;;;;;;11.70;99.90;;;;;;8412396;28;19925;-75
2022/02/18 11:42:39;;;;;;;;;;;11.80;99.90;;;;;;8406615;28;19936;-75
2022/02/18 11:47:13;;;;;;;;;;;11.80;99.90;;;;;;8422867;28;19928;-75
2022/02/18 11:51:22;;;;;;;;;;;11.80;99.90;;;;;;8387258;28;20360;-75
2022/02/18 11:55:30;;;;;;;;;;;11.80;99.90;;;;;;8416760;28;20376;-75
2022/02/18 11:59:41;;;;;;;;;;;11.90;99.90;;;;;;8392653;28;19963;-75
2022/02/18 12:04:03;;;;;;;;;;;11.90;99.90;;;;;;8388722;28;19924;-75
2022/02/18 12:08:04;;;;;;;;;;;11.90;99.90;;;;;;8409983;28;19931;-75
2022/02/18 12:12:19;;;;;;;;;;;11.70;99.90;;;;;;8416357;28;19932;-75
2022/02/18 12:16:21;;;;;;;;;;;11.50;99.90;;;;;;8419959;28;19924;-75
2022/02/18 12:20:27;;;;;;;;;;;11.40;99.90;;;;;;8424430;28;19924;-78
2022/02/18 12:24:46;;;;;;;;;;;11.40;99.90;;;;;;8414609;28;19924;-77
2022/02/18 12:28:48;;;;;;;;;;;10.60;99.90;;;;;;8418700;28;19928;-79
2022/02/18 12:32:51;;;;;;;;;;;9.80;99.90;;;;;;8415181;28;19967;-77
2022/02/18 12:36:53;;;;;;;;;;;9.40;99.90;;;;;;8405166;28;19924;-78
2022/02/18 12:40:55;;;;;;;;;;;9.30;99.90;;;;;;8415847;28;20288;-77
2022/02/18 12:44:57;;;;;;;;;;;9.20;99.90;;;;;;8413290;28;20277;-78
2022/02/18 12:48:59;;;;;;;;;;;9.20;99.90;;;;;;8414214;28;19931;-78
2022/02/18 12:53:01;;;;;;;;;;;9.20;99.90;;;;;;8411240;28;20454;-78
2022/02/18 12:57:13;;;;;;;;;;;9.10;99.90;;;;;;8413222;28;20341;-78
2022/02/18 13:01:14;;;;;;;;;;;9.00;99.90;;;;;;8402682;28;20170;-78
2022/02/18 13:05:17;;;;;;;;;;;9.00;99.90;;;;;;8419574;28;19958;-78
2022/02/18 13:09:19;;;;;;;;;;;9.00;99.90;;;;;;8413752;28;19932;-78
2022/02/18 13:13:22;;;;;;;;;;;8.90;99.90;;;;;;8397269;28;19929;-78
2022/02/18 13:17:24;;;;;;;;;;;8.90;99.90;;;;;;8398441;28;20272;-78
2022/02/18 13:21:27;;;;;;;;;;;8.90;99.90;;;;;;8417691;28;19924;-78
2022/02/18 13:25:31;;;;;;;;;;;8.80;99.90;;;;;;8394440;28;19974;-78
2022/02/18 13:29:43;;;;;;;;;;;8.80;99.90;;;;;;8387901;28;19975;-78
2022/02/18 13:33:51;;;;;;;;;;;8.90;99.90;;;;;;8409529;28;19986;-78
2022/02/18 13:37:53;;;;;;;;;;;8.90;99.90;;;;;;8392621;28;20276;-78
2022/02/18 13:41:57;;;;;;;;;;;9.00;99.90;;;;;;8414169;28;20387;-78
2022/02/18 13:45:59;;;;;;;;;;;9.10;99.90;;;;;;8413672;28;19939;-78
2022/02/18 13:50:04;;;;;;;;;;;9.30;99.90;;;;;;8405981;28;19932;-77
2022/02/18 13:54:06;;;;;;;;;;;9.40;99.90;;;;;;8408418;28;19924;-77
2022/02/18 13:58:24;;;;;;;;;;;9.60;99.90;;;;;;8409671;28;19931;-77
2022/02/18 14:02:26;;;;;;;;;;;9.90;99.90;;;;;;8388698;28;19925;-77
2022/02/18 14:06:31;;;;;;;;;;;10.10;99.90;;;;;;8391536;28;19978;-77
2022/02/18 14:10:50;;;;;;;;;;;10.40;99.90;;;;;;8406165;28;19931;-77
2022/02/18 14:15:02;;;;;;;;;;;10.60;99.90;;;;;;8386571;28;19944;-77
2022/02/18 14:19:04;;;;;;;;;;;10.70;99.90;;;;;;8395177;28;19924;-76
2022/02/18 14:23:06;;;;;;;;;;;10.70;99.90;;;;;;8402357;28;19924;-77
2022/02/18 14:27:12;;;;;;;;;;;10.70;99.90;;;;;;8410739;28;19955;-76
2022/02/18 14:31:29;;;;;;;;;;;10.70;99.90;;;;;;8390094;28;19924;-77
2022/02/18 14:35:38;;;;;;;;;;;10.80;99.90;;;;;;8407197;28;19928;-76
2022/02/18 14:39:44;;;;;;;;;;;10.80;99.90;;;;;;8385247;28;19924;-77
2022/02/18 14:43:52;;;;;;;;;;;10.90;99.90;;;;;;8400695;28;19925;-77
2022/02/18 14:47:56;;;;;;;;;;;11.20;99.90;;;;;;8401985;28;19928;-76
2022/02/18 14:51:57;;;;;;;;;;;11.30;99.90;;;;;;8386254;28;20758;-76
2022/02/18 14:55:59;;;;;;;;;;;11.10;99.90;;;;;;8408983;28;19931;-76
2022/02/18 15:00:01;;;;;;;;;;;11.00;99.90;;;;;;8409832;28;19930;-76
2022/02/18 15:04:02;;;;;;;;;;;11.20;99.90;;;;;;8410536;28;19928;-76
2022/02/18 15:08:04;;;;;;;;;;;11.50;99.90;;;;;;8403085;28;20030;-76
2022/02/18 15:12:07;;;;;;;;;;;11.40;99.90;;;;;;8395257;28;19931;-76
2022/02/18 15:16:09;;;;;;;;;;;11.30;99.90;;;;;;8408171;28;19924;-75
2022/02/18 15:20:11;;;;;;;;;;;11.10;99.90;;;;;;8398746;28;19925;-75
2022/02/18 15:24:12;;;;;;;;;;;11.00;99.90;;;;;;8404154;28;19925;-75
2022/02/18 15:28:14;;;;;;;;;;;11.10;99.90;;;;;;8402826;28;19991;-75
2022/02/18 15:36:36;;;;;;;;;;;10.60;99.90;;;;;;8410234;28;19925;-75
2022/02/18 15:45:02;;;;;;;;;;;9.90;99.90;;;;;;8399469;28;19935;-76
2022/02/18 15:49:04;;;;;;;;;;;10.00;99.90;;;;;;8408025;28;19924;-76
2022/02/18 15:53:06;;;;;;;;;;;10.10;99.90;;;;;;8387099;28;19936;-76
2022/02/18 15:57:08;;;;;;;;;;;10.10;99.90;;;;;;8387515;28;20367;-75
2022/02/18 16:01:10;;;;;;;;;;;10.00;99.90;;;;;;8403920;28;19932;-76
2022/02/18 16:05:13;;;;;;;;;;;10.00;99.90;;;;;;8404391;28;19924;-75
2022/02/18 16:09:15;;;;;;;;;;;9.90;99.90;;;;;;8409297;28;19931;-76
2022/02/18 16:13:17;;;;;;;;;;;9.80;99.90;;;;;;8408109;28;19933;-75
2022/02/18 16:17:19;;;;;;;;;;;9.60;99.90;;;;;;8411066;28;19931;-75
2022/02/18 16:21:24;;;;;;;;;;;9.40;99.90;;;;;;8409390;28;20371;-75
2022/02/18 16:25:25;;;;;;;;;;;9.00;99.90;;;;;;8395047;28;19929;-75
2022/02/18 16:29:27;;;;;;;;;;;8.90;99.90;;;;;;8408935;28;20233;-75
2022/02/18 16:33:29;;;;;;;;;;;8.90;99.90;;;;;;8391523;28;20037;-75
2022/02/18 16:37:31;;;;;;;;;;;8.80;99.90;;;;;;8411921;28;19931;-75
2022/02/18 16:41:33;;;;;;;;;;;8.80;99.90;;;;;;8409280;28;20338;-75
2022/02/18 16:45:35;;;;;;;;;;;8.80;99.90;;;;;;8403063;28;19928;-75
2022/02/18 16:49:37;;;;;;;;;;;8.80;99.90;;;;;;8405619;28;19932;-75
2022/02/18 16:53:38;;;;;;;;;;;8.80;99.90;;;;;;8410330;28;19928;-75
2022/02/18 16:57:40;;;;;;;;;;;8.80;99.90;;;;;;8404794;28;20403;-75
2022/02/18 17:01:43;;;;;;;;;;;8.80;99.90;;;;;;8412247;28;19932;-75
2022/02/18 17:05:44;;;;;;;;;;;8.70;99.90;;;;;;8407484;28;19924;-75
2022/02/18 17:09:46;;;;;;;;;;;8.60;99.90;;;;;;8403348;28;20391;-75
2022/02/18 17:13:48;;;;;;;;;;;8.70;99.90;;;;;;8400295;28;20437;-75
2022/02/18 17:17:52;;;;;;;;;;;8.70;99.90;;;;;;8405094;28;20375;-75
2022/02/18 17:21:59;;;;;;;;;;;8.30;99.90;;;;;;8418202;28;20475;-75
2022/02/18 17:26:00;;;;;;;;;;;7.90;99.90;;;;;;8399899;28;19977;-75
2022/02/18 17:30:06;;;;;;;;;;;7.80;99.90;;;;;;8403371;28;19951;-75
2022/02/18 17:34:08;;;;;;;;;;;8.00;99.90;;;;;;8390289;28;20383;-75
2022/02/18 17:38:09;;;;;;;;;;;7.80;99.90;;;;;;8400425;28;20391;-75
2022/02/18 17:42:11;;;;;;;;;;;7.60;99.90;;;;;;8402204;28;19932;-75
2022/02/18 17:46:13;;;;;;;;;;;7.50;99.90;;;;;;8407190;28;20244;-75
2022/02/18 17:50:15;;;;;;;;;;;7.60;99.90;;;;;;8388848;28;20295;-75
2022/02/18 17:54:21;;;;;;;;;;;7.80;99.90;;;;;;8383058;28;19931;-75
2022/02/18 17:58:25;;;;;;;;;;;7.90;99.90;;;;;;8408178;28;20023;-75
2022/02/18 18:02:26;;;;;;;;;;;8.00;99.90;;;;;;8413154;28;19924;-78
2022/02/18 18:06:28;;;;;;;;;;;7.40;99.90;;;;;;8417755;28;19924;-77
2022/02/18 18:10:29;;;;;;;;;;;6.50;99.90;;;;;;8397817;28;19924;-77
2022/02/18 18:14:32;;;;;;;;;;;6.20;99.90;;;;;;8408275;28;20007;-77
2022/02/18 18:18:34;;;;;;;;;;;6.10;99.90;;;;;;8416781;28;19924;-76
2022/02/18 18:22:36;;;;;;;;;;;6.30;99.90;;;;;;8408698;28;20269;-76
2022/02/18 18:26:37;;;;;;;;;;;6.50;99.90;;;;;;8412360;28;19966;-76
2022/02/18 18:30:39;;;;;;;;;;;6.70;99.90;;;;;;8403739;28;20203;-76
2022/02/18 18:34:44;;;;;;;;;;;6.90;99.90;;;;;;8377958;28;19972;-76
2022/02/18 18:38:45;;;;;;;;;;;7.10;99.90;;;;;;8370155;28;20361;-76
2022/02/18 18:42:50;;;;;;;;;;;7.10;99.90;;;;;;8370011;28;19925;-75
2022/02/18 18:46:52;;;;;;;;;;;7.20;99.90;;;;;;8390976;28;19925;-76
2022/02/18 18:50:58;;;;;;;;;;;7.30;99.90;;;;;;8376711;28;19953;-76
2022/02/18 18:55:00;;;;;;;;;;;7.30;99.90;;;;;;8390927;28;19932;-76
2022/02/18 18:59:03;;;;;;;;;;;7.40;99.90;;;;;;8390791;28;19928;-76
2022/02/18 19:03:04;;;;;;;;;;;7.40;99.90;;;;;;8369271;28;19925;-75
2022/02/18 19:07:06;;;;;;;;;;;7.40;99.90;;;;;;8375597;28;19924;-75
2022/02/18 19:11:08;;;;;;;;;;;7.50;99.90;;;;;;8369753;28;19924;-75
2022/02/18 19:15:09;;;;;;;;;;;7.60;99.90;;;;;;8374382;28;19936;-75
2022/02/18 19:19:11;;;;;;;;;;;7.60;99.90;;;;;;8372521;28;19932;-75
2022/02/18 19:23:13;;;;;;;;;;;7.60;99.90;;;;;;8376885;28;19935;-75
2022/02/18 19:27:14;;;;;;;;;;;7.50;99.90;;;;;;8378302;28;19924;-75
2022/02/18 19:31:16;;;;;;;;;;;7.50;99.90;;;;;;8378605;28;20360;-74
2022/02/18 19:35:20;;;;;;;;;;;7.40;99.90;;;;;;8403356;28;19931;-75
2022/02/18 19:39:21;;;;;;;;;;;7.40;99.90;;;;;;8390473;28;19924;-75
2022/02/18 19:43:23;;;;;;;;;;;7.40;99.90;;;;;;8408118;28;19982;-75
2022/02/18 19:47:25;;;;;;;;;;;7.40;99.90;;;;;;8396658;28;19924;-75
2022/02/18 19:51:26;;;;;;;;;;;7.40;99.90;;;;;;8416015;28;19932;-75
2022/02/18 19:55:28;;;;;;;;;;;7.40;99.90;;;;;;8416438;28;19924;-74
2022/02/18 19:59:56;;;;;;;;;;;7.40;99.90;;;;;;8413852;28;19939;-75
2022/02/18 20:04:00;;;;;;;;;;;7.40;99.90;;;;;;8399833;28;19943;-75
2022/02/18 20:08:01;;;;;;;;;;;7.40;99.90;;;;;;8408354;28;19924;-75
2022/02/18 20:12:04;;;;;;;;;;;7.30;99.90;;;;;;8414011;28;19932;-75
2022/02/18 20:16:07;;;;;;;;;;;7.40;99.90;;;;;;8411905;28;19966;-74
2022/02/18 20:20:09;;;;;;;;;;;7.40;99.90;;;;;;8394961;28;20360;-75
2022/02/18 20:24:11;;;;;;;;;;;7.40;99.90;;;;;;8411271;28;19931;-75
2022/02/18 20:28:12;;;;;;;;;;;7.40;99.90;;;;;;8415867;28;19924;-75
2022/02/18 20:32:14;;;;;;;;;;;7.50;99.90;;;;;;8390433;28;19924;-75
2022/02/18 20:36:16;;;;;;;;;;;7.50;99.90;;;;;;8411514;28;19924;-75
2022/02/18 20:40:17;;;;;;;;;;;7.50;99.90;;;;;;8414720;28;19931;-75
2022/02/18 20:44:19;;;;;;;;;;;7.50;99.90;;;;;;8406027;28;19928;-75
2022/02/18 20:48:21;;;;;;;;;;;7.50;99.90;;;;;;8414027;28;19924;-75
2022/02/18 20:52:24;;;;;;;;;;;7.50;99.90;;;;;;8420651;28;19924;-74
2022/02/18 20:56:26;;;;;;;;;;;7.50;99.90;;;;;;8414358;28;19935;-74
2022/02/18 21:00:28;;;;;;;;;;;7.50;99.90;;;;;;8402065;28;19948;-75
2022/02/18 21:04:30;;;;;;;;;;;7.50;99.90;;;;;;8414763;28;19939;-74
2022/02/18 21:08:34;;;;;;;;;;;7.50;99.90;;;;;;8410807;28;19932;-74
2022/02/18 21:12:36;;;;;;;;;;;7.50;99.90;;;;;;8417345;28;19951;-74
2022/02/18 21:16:40;;;;;;;;;;;7.50;99.90;;;;;;8415419;28;20425;-74
2022/02/18 21:20:42;;;;;;;;;;;7.40;99.90;;;;;;8389302;28;20039;-75
2022/02/18 21:24:45;;;;;;;;;;;7.30;99.90;;;;;;8407117;28;19932;-74
2022/02/18 21:28:49;;;;;;;;;;;7.30;99.90;;;;;;8411581;28;19924;-74
2022/02/18 21:32:51;;;;;;;;;;;7.20;99.90;;;;;;8407232;28;20016;-74
2022/02/18 21:36:52;;;;;;;;;;;7.20;99.90;;;;;;8414141;28;19932;-74
2022/02/18 21:40:54;;;;;;;;;;;7.20;99.90;;;;;;8410984;28;19932;-74
2022/02/18 21:44:56;;;;;;;;;;;7.20;99.90;;;;;;8417538;28;19932;-74
2022/02/18 21:48:58;;;;;;;;;;;7.10;99.90;;;;;;8399027;28;19924;-74
2022/02/18 21:52:59;;;;;;;;;;;7.10;99.90;;;;;;8409625;28;19928;-74
2022/02/18 21:57:11;;;;;;;;;;;7.10;99.90;;;;;;8396664;28;19924;-75
2022/02/18 22:01:13;;;;;;;;;;;7.00;99.90;;;;;;8397517;28;19932;-74
2022/02/18 22:05:14;;;;;;;;;;;6.90;99.90;;;;;;8405091;28;19924;-74
2022/02/18 22:09:16;;;;;;;;;;;6.80;99.90;;;;;;8409105;28;19931;-74
2022/02/18 22:13:18;;;;;;;;;;;6.80;99.90;;;;;;8406428;28;19935;-74
2022/02/18 22:17:20;;;;;;;;;;;6.70;99.90;;;;;;8411271;28;19935;-74
2022/02/18 22:21:22;;;;;;;;;;;6.70;99.90;;;;;;8411387;28;19931;-74
2022/02/18 22:25:23;;;;;;;;;;;6.60;99.90;;;;;;8409836;28;19924;-75
2022/02/18 22:29:25;;;;;;;;;;;6.60;99.90;;;;;;8412767;28;19935;-74
2022/02/18 22:33:27;;;;;;;;;;;6.60;99.90;;;;;;8406966;28;19924;-74
2022/02/18 22:37:29;;;;;;;;;;;6.60;99.90;;;;;;8406410;28;19924;-74
2022/02/18 22:41:30;;;;;;;;;;;6.60;99.90;;;;;;8395605;28;19929;-74
2022/02/18 22:45:32;;;;;;;;;;;6.60;99.90;;;;;;8414887;28;19979;-74
2022/02/18 22:49:34;;;;;;;;;;;6.60;99.90;;;;;;8410515;28;19928;-74
2022/02/18 22:53:35;;;;;;;;;;;6.60;99.90;;;;;;8410510;28;19947;-74
2022/02/18 22:57:37;;;;;;;;;;;6.60;99.90;;;;;;8393490;28;19931;-74
2022/02/18 23:01:39;;;;;;;;;;;6.50;99.90;;;;;;8410808;28;19924;-75
2022/02/18 23:05:41;;;;;;;;;;;6.50;99.90;;;;;;8395161;28;19985;-74
2022/02/18 23:09:43;;;;;;;;;;;6.50;99.90;;;;;;8404151;28;19940;-75
2022/02/18 23:13:44;;;;;;;;;;;6.40;99.90;;;;;;8409546;28;20651;-74
2022/02/18 23:17:46;;;;;;;;;;;6.40;99.90;;;;;;8397980;28;20276;-74
2022/02/18 23:21:48;;;;;;;;;;;6.30;99.90;;;;;;8420719;28;19928;-74
2022/02/18 23:25:49;;;;;;;;;;;6.30;99.90;;;;;;8414757;28;19939;-74
2022/02/18 23:29:51;;;;;;;;;;;6.30;99.90;;;;;;8414486;28;19928;-74
2022/02/18 23:33:52;;;;;;;;;;;6.20;99.90;;;;;;8418600;28;19924;-74
2022/02/18 23:37:54;;;;;;;;;;;6.20;99.90;;;;;;8401761;28;19924;-74
2022/02/18 23:41:56;;;;;;;;;;;6.20;99.90;;;;;;8410852;28;19929;-74
2022/02/18 23:45:58;;;;;;;;;;;6.20;99.90;;;;;;8426477;28;19924;-74
2022/02/18 23:49:59;;;;;;;;;;;6.20;99.90;;;;;;8417614;28;19935;-74
2022/02/18 23:54:01;;;;;;;;;;;6.20;99.90;;;;;;8405730;28;19928;-74
2022/02/18 23:58:03;;;;;;;;;;;6.20;99.90;;;;;;8412766;28;19929;-74
